createdAt,value
2022-09-04T00:00:19.171Z,3.00
2022-09-04T00:03:39.590Z,2.50
2022-09-04T00:06:54.656Z,2.67
2022-09-04T00:10:11.435Z,2.70
2022-09-04T00:13:22.123Z,2.93
2022-09-04T00:16:33.929Z,2.67
2022-09-04T00:19:41.383Z,2.60
2022-09-04T00:22:53.856Z,3.03
2022-09-04T00:26:03.864Z,2.90
2022-09-04T00:29:21.042Z,2.80
2022-09-04T00:32:29.143Z,2.80
2022-09-04T00:35:34.605Z,2.30
2022-09-04T00:38:43.001Z,2.47
2022-09-04T00:42:02.474Z,2.40
2022-09-04T00:45:20.477Z,2.80
2022-09-04T00:49:12.324Z,2.90
2022-09-04T00:52:36.265Z,2.70
2022-09-04T00:55:54.143Z,3.20
2022-09-04T00:59:11.389Z,2.70
2022-09-04T01:02:27.133Z,2.67
2022-09-04T01:05:45.437Z,2.80
2022-09-04T01:09:22.021Z,2.50
2022-09-04T01:12:36.386Z,2.63
2022-09-04T01:15:44.971Z,2.60
2022-09-04T01:18:56.043Z,2.30
2022-09-04T01:22:17.120Z,2.47
2022-09-04T01:25:38.976Z,2.20
2022-09-04T01:28:54.238Z,2.57
2022-09-04T01:32:07.414Z,2.43
2022-09-04T01:35:20.237Z,2.60
2022-09-04T01:38:32.483Z,2.63
2022-09-04T01:41:39.283Z,2.50
2022-09-04T01:44:43.938Z,2.10
2022-09-04T01:47:50.812Z,2.30
2022-09-04T01:51:00.193Z,2.27
2022-09-04T01:54:18.935Z,2.30
2022-09-04T01:57:45.615Z,2.40
2022-09-04T02:00:58.104Z,2.20
2022-09-04T02:04:08.100Z,2.53
2022-09-04T02:07:20.735Z,2.30
2022-09-04T02:10:35.576Z,2.43
2022-09-04T02:13:51.352Z,2.37
2022-09-04T02:17:09.068Z,2.27
2022-09-04T02:20:20.020Z,1.90
2022-09-04T02:23:30.866Z,2.20
2022-09-04T02:26:40.809Z,2.40
2022-09-04T02:29:49.937Z,2.20
2022-09-04T02:33:03.631Z,2.10
2022-09-04T02:36:13.286Z,2.20
2022-09-04T02:39:30.782Z,2.30
2022-09-04T02:42:44.834Z,2.00
2022-09-04T02:45:54.837Z,2.20
2022-09-04T02:49:07.797Z,2.03
2022-09-04T02:52:25.729Z,2.27
2022-09-04T02:55:44.638Z,2.20
2022-09-04T02:59:03.817Z,2.43
2022-09-04T03:02:13.080Z,2.40
2022-09-04T03:05:21.864Z,2.17
2022-09-04T03:08:31.220Z,2.30
2022-09-04T03:11:46.916Z,2.30
2022-09-04T03:14:58.858Z,2.40
2022-09-04T03:18:06.970Z,2.30
2022-09-04T03:21:16.506Z,2.40
2022-09-04T03:24:24.673Z,2.40
2022-09-04T03:27:28.423Z,2.20
2022-09-04T03:34:19.882Z,2.33
2022-09-04T03:37:52.119Z,2.37
2022-09-04T03:41:06.209Z,2.17
2022-09-04T03:44:23.048Z,2.53
2022-09-04T03:47:38.468Z,2.20
2022-09-04T03:50:50.754Z,2.50
2022-09-04T03:54:06.307Z,2.20
2022-09-04T03:57:32.812Z,2.50
2022-09-04T04:00:45.262Z,2.07
2022-09-04T04:04:23.893Z,2.07
2022-09-04T04:07:35.722Z,2.20
2022-09-04T04:10:52.709Z,2.53
2022-09-04T04:14:08.062Z,2.40
2022-09-04T04:17:31.447Z,2.60
2022-09-04T04:20:42.579Z,2.57
2022-09-04T04:24:14.860Z,2.30
2022-09-04T04:27:36.985Z,2.43
2022-09-04T04:30:50.087Z,2.23
2022-09-04T04:33:59.855Z,2.37
2022-09-04T04:37:09.283Z,2.30
2022-09-04T04:40:19.899Z,2.50
2022-09-04T04:43:31.813Z,2.40
2022-09-04T04:46:48.684Z,2.50
2022-09-04T04:50:04.181Z,2.30
2022-09-04T04:53:17.973Z,2.30
2022-09-04T04:56:27.853Z,2.30
2022-09-04T04:59:47.100Z,2.30
2022-09-04T05:03:05.279Z,2.50
2022-09-04T05:06:15.887Z,2.67
2022-09-04T05:09:31.656Z,2.30
2022-09-04T05:12:50.717Z,2.50
2022-09-04T05:16:09.890Z,2.20
2022-09-04T05:19:25.098Z,2.30
2022-09-04T05:22:37.487Z,2.40
2022-09-04T05:25:47.317Z,2.40
2022-09-04T05:28:59.481Z,2.10
2022-09-04T05:32:14.744Z,2.60
2022-09-04T05:35:24.148Z,2.40
2022-09-04T05:38:38.152Z,2.40
2022-09-04T05:41:57.131Z,2.50
2022-09-04T05:45:07.714Z,2.33
2022-09-04T05:48:22.609Z,2.53
2022-09-04T05:52:05.170Z,2.47
2022-09-04T05:55:43.059Z,2.50
2022-09-04T05:59:00.587Z,2.50
2022-09-04T06:02:23.044Z,2.37
2022-09-04T06:05:36.847Z,2.50
2022-09-04T06:09:09.691Z,2.13
2022-09-04T06:12:52.727Z,2.27
2022-09-04T06:16:13.033Z,2.70
2022-09-04T06:19:39.671Z,2.57
2022-09-04T06:23:03.252Z,2.57
2022-09-04T06:26:34.309Z,2.70
2022-09-04T06:29:53.163Z,2.70
2022-09-04T06:33:31.151Z,2.87
2022-09-04T06:37:00.205Z,3.23
2022-09-04T06:40:18.313Z,3.20
2022-09-04T06:43:33.512Z,2.87
2022-09-04T06:46:43.793Z,3.00
2022-09-04T06:50:07.882Z,2.83
2022-09-04T06:53:21.245Z,2.83
2022-09-04T06:56:40.020Z,2.90
2022-09-04T06:59:56.440Z,3.17
2022-09-04T07:03:21.018Z,3.10
2022-09-04T07:06:33.387Z,3.03
2022-09-04T07:09:41.295Z,2.97
2022-09-04T07:13:28.878Z,3.63
2022-09-04T07:16:41.732Z,2.90
2022-09-04T07:19:59.131Z,3.50
2022-09-04T07:23:23.709Z,3.90
2022-09-04T07:26:36.128Z,3.13
2022-09-04T07:29:51.316Z,3.90
2022-09-04T07:32:59.042Z,3.37
2022-09-04T07:36:14.826Z,3.80
2022-09-04T07:39:25.301Z,3.10
2022-09-04T07:42:35.921Z,3.63
2022-09-04T07:45:47.417Z,4.00
2022-09-04T07:48:56.399Z,4.10
2022-09-04T07:52:07.547Z,3.70
2022-09-04T07:55:23.763Z,3.60
2022-09-04T07:59:05.615Z,3.90
2022-09-04T08:02:24.159Z,3.80
2022-09-04T08:05:32.194Z,3.70
2022-09-04T08:08:57.454Z,3.80
2022-09-04T08:12:31.575Z,3.90
2022-09-04T08:15:43.458Z,4.07
2022-09-04T08:19:08.554Z,3.83
2022-09-04T08:22:18.923Z,4.07
2022-09-04T08:25:28.565Z,3.90
2022-09-04T08:28:46.459Z,3.73
2022-09-04T08:32:04.107Z,3.80
2022-09-04T08:35:23.487Z,3.40
2022-09-04T08:38:41.783Z,3.77
2022-09-04T08:42:29.627Z,3.70
2022-09-04T08:46:05.196Z,3.60
2022-09-04T08:49:42.336Z,3.40
2022-09-04T08:53:18.758Z,3.40
2022-09-04T08:56:27.950Z,3.40
2022-09-04T09:00:05.605Z,3.77
2022-09-04T09:03:48.145Z,4.23
2022-09-04T09:07:31.169Z,3.80
2022-09-04T09:10:56.797Z,3.37
2022-09-04T09:14:44.456Z,3.27
2022-09-04T09:18:02.008Z,3.93
2022-09-04T09:21:10.861Z,3.37
2022-09-04T09:24:46.384Z,3.30
2022-09-04T09:28:31.605Z,2.80
2022-09-04T09:32:07.139Z,3.20
2022-09-04T09:35:55.730Z,3.37
2022-09-04T09:39:22.625Z,3.20
2022-09-04T09:42:57.345Z,3.07
2022-09-04T09:46:33.539Z,3.07
2022-09-04T09:50:20.190Z,2.70
2022-09-04T09:53:49.465Z,3.37
2022-09-04T09:57:33.546Z,3.00
2022-09-04T10:00:46.430Z,3.03
2022-09-04T10:04:14.633Z,3.10
2022-09-04T10:07:54.661Z,2.90
2022-09-04T10:11:38.873Z,3.27
2022-09-04T10:15:19.993Z,3.17
2022-09-04T10:18:41.444Z,2.77
2022-09-04T10:22:29.562Z,2.60
2022-09-04T10:26:02.287Z,2.80
2022-09-04T10:29:32.020Z,2.87
2022-09-04T10:33:22.493Z,2.80
2022-09-04T10:36:38.928Z,3.60
2022-09-04T10:40:15.226Z,3.07
2022-09-04T10:43:37.832Z,2.93
2022-09-04T10:46:50.874Z,2.63
2022-09-04T10:50:12.775Z,3.10
2022-09-04T10:53:51.246Z,2.87
2022-09-04T10:57:05.625Z,2.90
2022-09-04T11:00:13.926Z,2.90
2022-09-04T11:04:13.902Z,2.83
2022-09-04T11:07:37.508Z,3.10
2022-09-04T11:11:03.329Z,2.60
2022-09-04T11:14:34.679Z,2.90
2022-09-04T11:18:03.947Z,2.90
2022-09-04T11:21:58.895Z,2.83
2022-09-04T11:25:45.300Z,2.80
2022-09-04T11:29:17.359Z,3.17
2022-09-04T11:33:09.993Z,3.33
2022-09-04T11:37:00.680Z,3.60
2022-09-04T11:40:42.790Z,3.13
2022-09-04T11:44:07.933Z,3.00
2022-09-04T11:47:52.381Z,3.60
2022-09-04T11:51:25.125Z,2.93
2022-09-04T11:55:13.942Z,3.23
2022-09-04T11:58:48.302Z,3.10
2022-09-04T12:02:14.176Z,3.17
2022-09-04T12:05:39.098Z,2.73
2022-09-04T12:09:20.215Z,3.47
2022-09-04T12:12:51.262Z,3.00
2022-09-04T12:16:44.933Z,2.90
2022-09-04T12:20:24.056Z,3.30
2022-09-04T12:23:56.843Z,3.50
2022-09-04T12:27:39.759Z,2.97
2022-09-04T12:31:02.711Z,3.30
2022-09-04T12:34:24.600Z,2.97
2022-09-04T12:37:49.309Z,3.27
2022-09-04T12:40:59.698Z,2.90
2022-09-04T12:44:11.730Z,3.13
2022-09-04T12:47:28.437Z,3.00
2022-09-04T12:50:40.289Z,3.20
2022-09-04T12:53:59.262Z,3.40
2022-09-04T12:57:18.561Z,3.30
2022-09-04T13:00:40.715Z,2.77
2022-09-04T13:04:01.194Z,3.27
2022-09-04T13:07:27.601Z,2.97
2022-09-04T13:10:37.493Z,2.90
2022-09-04T13:13:48.751Z,2.83
2022-09-04T13:17:01.947Z,3.00
2022-09-04T13:20:15.805Z,3.20
2022-09-04T13:23:46.366Z,3.50
2022-09-04T13:27:03.652Z,3.00
2022-09-04T13:30:09.744Z,2.97
2022-09-04T13:33:39.614Z,3.47
2022-09-04T13:36:54.055Z,3.10
2022-09-04T13:40:18.603Z,2.90
2022-09-04T13:43:41.120Z,2.70
2022-09-04T13:46:48.071Z,3.23
2022-09-04T13:50:00.060Z,2.97
2022-09-04T13:53:14.218Z,2.77
2022-09-04T13:56:19.785Z,2.97
2022-09-04T13:59:24.161Z,2.70
2022-09-04T14:02:30.183Z,3.50
2022-09-04T14:05:37.552Z,3.10
2022-09-04T14:08:43.190Z,3.30
2022-09-04T14:12:19.949Z,2.90
2022-09-04T14:15:44.655Z,3.13
2022-09-04T14:19:12.339Z,3.30
2022-09-04T14:22:33.820Z,2.90
2022-09-04T14:25:50.969Z,2.47
2022-09-04T14:29:02.769Z,3.33
2022-09-04T14:32:18.712Z,2.83
2022-09-04T14:35:32.791Z,3.50
2022-09-04T14:38:54.051Z,2.80
2022-09-04T14:42:23.174Z,3.10
2022-09-04T14:45:58.321Z,3.30
2022-09-04T14:49:04.305Z,3.20
2022-09-04T14:52:19.744Z,3.00
2022-09-04T14:55:30.878Z,2.83
2022-09-04T14:58:37.633Z,3.50
2022-09-04T15:02:01.616Z,2.53
2022-09-04T15:05:16.304Z,3.27
2022-09-04T15:08:28.941Z,2.97
2022-09-04T15:11:35.517Z,2.77
2022-09-04T15:14:40.129Z,2.87
2022-09-04T15:17:51.542Z,3.33
2022-09-04T15:20:58.894Z,3.00
2022-09-04T15:24:12.977Z,3.07
2022-09-04T15:27:23.620Z,2.93
2022-09-04T15:30:35.704Z,2.90
2022-09-04T15:33:44.191Z,2.90
2022-09-04T15:37:11.221Z,3.30
2022-09-04T15:40:28.452Z,3.07
2022-09-04T15:43:39.306Z,3.07
2022-09-04T15:46:50.631Z,2.87
2022-09-04T15:50:02.147Z,3.10
2022-09-04T15:53:15.879Z,3.07
2022-09-04T15:56:37.351Z,3.20
2022-09-04T15:59:52.108Z,3.10
2022-09-04T16:03:01.479Z,2.87
2022-09-04T16:06:13.956Z,3.03
2022-09-04T16:09:24.389Z,3.07
2022-09-04T16:12:33.278Z,3.20
2022-09-04T16:15:41.952Z,3.43
2022-09-04T16:19:07.419Z,3.30
2022-09-04T16:22:21.616Z,3.10
2022-09-04T16:25:30.004Z,3.27
2022-09-04T16:28:35.815Z,3.33
2022-09-04T16:31:40.410Z,2.80
2022-09-04T16:34:49.855Z,2.90
2022-09-04T16:37:57.299Z,2.90
2022-09-04T16:41:06.053Z,2.50
2022-09-04T16:44:27.610Z,2.90
2022-09-04T16:47:44.571Z,2.93
2022-09-04T16:50:54.180Z,3.13
2022-09-04T16:54:05.242Z,3.27
2022-09-04T16:57:13.683Z,2.97
2022-09-04T17:00:18.616Z,3.30
2022-09-04T17:03:41.761Z,3.00
2022-09-04T17:06:57.468Z,3.50
2022-09-04T17:10:06.405Z,3.23
2022-09-04T17:13:16.582Z,2.93
2022-09-04T17:16:22.502Z,3.30
2022-09-04T17:19:28.188Z,3.20
2022-09-04T17:29:02.817Z,3.40
2022-09-04T17:29:11.656Z,4.00
2022-09-04T17:29:40.563Z,3.40
2022-09-04T17:38:28.344Z,3.10
2022-09-04T17:40:36.705Z,3.27
2022-09-04T17:40:48.845Z,3.73
2022-09-04T17:43:35.729Z,3.43
2022-09-04T17:46:44.269Z,3.97
2022-09-04T17:49:50.060Z,3.83
2022-09-04T17:53:01.893Z,4.30
2022-09-04T17:56:11.254Z,4.10
2022-09-04T17:59:21.701Z,4.80
2022-09-04T18:02:34.277Z,4.57
2022-09-04T18:05:47.275Z,4.40
2022-09-04T18:09:07.760Z,4.27
2022-09-04T18:12:19.160Z,4.70
2022-09-04T18:15:35.119Z,4.13
2022-09-04T18:18:48.391Z,4.77
2022-09-04T18:22:25.903Z,4.47
2022-09-04T18:25:37.120Z,4.73
2022-09-04T18:28:50.495Z,4.87
2022-09-04T18:37:06.202Z,4.63
2022-09-04T18:37:27.099Z,4.30
2022-09-04T18:39:09.010Z,4.87
2022-09-04T18:48:49.239Z,4.40
2022-09-04T18:50:28.111Z,4.30
2022-09-04T18:50:33.640Z,4.10
2022-09-04T18:52:57.904Z,4.60
2022-09-04T18:56:04.299Z,4.70
2022-09-04T18:59:29.756Z,4.50
2022-09-04T19:02:34.840Z,4.80
2022-09-04T19:05:47.126Z,4.60
2022-09-04T19:08:54.221Z,5.20
2022-09-04T19:12:02.545Z,4.87
2022-09-04T19:15:22.039Z,4.73
2022-09-04T19:18:45.251Z,4.97
2022-09-04T19:21:58.330Z,5.00
2022-09-04T19:25:07.371Z,4.70
2022-09-04T19:28:15.234Z,5.43
2022-09-04T19:31:30.039Z,4.97
2022-09-04T19:34:42.850Z,5.17
2022-09-04T19:45:39.685Z,5.40
2022-09-04T19:46:01.096Z,5.30
2022-09-04T19:46:18.373Z,4.50
2022-09-04T19:48:31.912Z,5.00
2022-09-04T19:53:32.455Z,4.80
2022-09-04T19:55:25.378Z,4.70
2022-09-04T19:58:38.487Z,4.83
2022-09-04T20:01:46.186Z,4.93
2022-09-04T20:04:55.260Z,5.47
2022-09-04T20:08:07.914Z,5.13
2022-09-04T20:11:35.361Z,4.93
2022-09-04T20:14:46.443Z,4.70
2022-09-04T20:18:08.658Z,5.13
2022-09-04T20:21:18.991Z,5.13
2022-09-04T20:24:26.262Z,5.07
2022-09-04T20:27:34.266Z,5.20
2022-09-04T20:30:43.099Z,5.27
2022-09-04T20:33:48.322Z,4.83
2022-09-04T20:37:01.078Z,5.07
2022-09-04T20:40:27.044Z,4.57
2022-09-04T20:43:39.222Z,5.20
2022-09-04T20:52:43.382Z,4.80
2022-09-04T20:53:00.395Z,5.30
2022-09-04T20:54:06.785Z,4.87
2022-09-04T21:00:21.538Z,4.80
2022-09-04T21:03:19.609Z,4.80
2022-09-04T21:04:34.884Z,4.93
2022-09-04T21:07:52.434Z,4.80
2022-09-04T21:11:00.321Z,5.10
2022-09-04T21:14:10.704Z,4.97
2022-09-04T21:17:35.792Z,4.90
2022-09-04T21:21:11.787Z,4.83
2022-09-04T21:25:10.888Z,5.40
2022-09-04T21:29:10.917Z,5.43
2022-09-04T21:32:47.197Z,5.20
2022-09-04T21:35:54.314Z,5.27
2022-09-04T21:39:47.590Z,5.53
2022-09-04T21:43:07.577Z,5.20
2022-09-04T21:46:47.526Z,5.10
2022-09-04T21:50:35.249Z,5.50
2022-09-04T21:54:23.328Z,4.67
2022-09-04T22:02:30.949Z,5.30
2022-09-04T22:02:40.289Z,5.13
2022-09-04T22:05:18.387Z,5.00
2022-09-04T22:13:27.143Z,5.43
2022-09-04T22:13:37.628Z,5.33
2022-09-04T22:15:55.287Z,5.17
2022-09-04T22:19:30.812Z,5.27
2022-09-04T22:23:32.584Z,5.10
2022-09-04T22:27:16.749Z,5.23
2022-09-04T22:30:20.927Z,5.47
2022-09-04T22:34:15.327Z,5.07
2022-09-04T22:38:01.631Z,5.00
2022-09-04T22:41:24.831Z,5.20
2022-09-04T22:44:43.057Z,5.00
2022-09-04T22:48:02.720Z,4.77
2022-09-04T22:51:18.640Z,4.97
2022-09-04T22:54:54.098Z,5.87
2022-09-04T22:58:16.043Z,4.93
2022-09-04T23:02:01.382Z,5.17
2022-09-04T23:05:45.423Z,5.33
2022-09-04T23:13:48.667Z,5.53
2022-09-04T23:13:51.850Z,5.33
2022-09-04T23:16:49.378Z,5.00
2022-09-04T23:26:38.457Z,5.30
2022-09-04T23:26:43.774Z,5.17
2022-09-04T23:27:46.694Z,5.30
2022-09-04T23:31:00.178Z,5.30
2022-09-04T23:34:34.373Z,5.40
2022-09-04T23:38:02.892Z,5.50
2022-09-04T23:41:13.904Z,5.20
2022-09-04T23:44:44.259Z,5.30
2022-09-04T23:48:16.949Z,5.23
2022-09-04T23:51:30.631Z,5.73
2022-09-04T23:55:12.933Z,5.50
2022-09-04T23:58:51.872Z,5.07
